Time;durP1;ratioP1;P1;durP2;ratioP2;P2;SDS_P1;SDS_P2;PMS_P1;PMS_P2;Temp;Humidity;BMP_temperature;BMP_pressure;BME280_temperature;BME280_humidity;BME280_pressure;Samples;Min_cycle;Max_cycle;Signal;HPM_P1;HPM_P2
2023/05/02 00:01:53;;;;;;;16.83;10.52;;;;;;;;;;4960357;28;20055;-85
2023/05/02 00:04:20;;;;;;;20.98;11.55;;;;;;;;;;4968750;28;20058;-84
2023/05/02 00:06:47;;;;;;;21.95;11.30;;;;;;;;;;4969815;28;20047;-84
2023/05/02 00:09:14;;;;;;;17.63;10.40;;;;;;;;;;4967203;28;20094;-84
2023/05/02 00:11:41;;;;;;;17.77;10.38;;;;;;;;;;4967126;28;20099;-85
2023/05/02 00:14:08;;;;;;;17.92;10.18;;;;;;;;;;4959801;28;20063;-83
2023/05/02 00:16:35;;;;;;;20.13;10.43;;;;;;;;;;4954700;28;20097;-83
2023/05/02 00:19:03;;;;;;;17.10;10.20;;;;;;;;;;4956974;28;20078;-84
2023/05/02 00:21:30;;;;;;;26.48;10.60;;;;;;;;;;4957712;28;20119;-85
2023/05/02 00:23:56;;;;;;;18.92;10.48;;;;;;;;;;4956915;28;20047;-85
2023/05/02 00:26:23;;;;;;;16.83;10.32;;;;;;;;;;4965472;28;20052;-85
2023/05/02 00:28:50;;;;;;;17.75;10.45;;;;;;;;;;4948252;28;20079;-87
2023/05/02 00:31:16;;;;;;;24.00;10.82;;;;;;;;;;4963350;28;20524;-85
2023/05/02 00:33:43;;;;;;;17.27;10.65;;;;;;;;;;4958918;28;20055;-83
2023/05/02 00:36:13;;;;;;;22.85;10.48;;;;;;;;;;4955219;28;20098;-85
2023/05/02 00:38:40;;;;;;;19.63;10.07;;;;;;;;;;4963491;28;20058;-85
2023/05/02 00:41:10;;;;;;;18.52;10.45;;;;;;;;;;4942778;28;20047;-84
2023/05/02 00:43:40;;;;;;;22.05;10.82;;;;;;;;;;4958411;28;20035;-84
2023/05/02 00:46:07;;;;;;;16.33;9.73;;;;;;;;;;4942817;28;20079;-84
2023/05/02 00:48:35;;;;;;;20.42;10.23;;;;;;;;;;4959949;28;20043;-84
2023/05/02 00:51:03;;;;;;;15.70;10.05;;;;;;;;;;4960255;28;20074;-84
2023/05/02 00:53:31;;;;;;;23.05;11.07;;;;;;;;;;4943371;28;20043;-85
2023/05/02 00:55:57;;;;;;;20.02;9.90;;;;;;;;;;4968512;28;20070;-84
2023/05/02 00:58:28;;;;;;;17.77;10.13;;;;;;;;;;4970167;28;20134;-84
2023/05/02 01:01:03;;;;;;;16.55;9.50;;;;;;;;;;4958661;28;20047;-82
2023/05/02 01:03:36;;;;;;;20.42;10.30;;;;;;;;;;4972706;28;20126;-84
2023/05/02 01:06:23;;;;;;;17.93;10.43;;;;;;;;;;4957533;28;20047;-83
2023/05/02 01:09:19;;;;;;;18.05;9.57;;;;;;;;;;4944800;28;20467;-85
2023/05/02 01:11:46;;;;;;;19.65;10.43;;;;;;;;;;4958041;28;20047;-85
2023/05/02 01:14:13;;;;;;;21.13;9.63;;;;;;;;;;4979258;28;20047;-83
2023/05/02 01:16:42;;;;;;;17.45;10.07;;;;;;;;;;4945924;28;20357;-86
2023/05/02 01:19:12;;;;;;;16.17;9.80;;;;;;;;;;4967077;28;20130;-84
2023/05/02 01:21:39;;;;;;;18.42;9.57;;;;;;;;;;4944211;28;20051;-84
2023/05/02 01:24:21;;;;;;;21.95;9.93;;;;;;;;;;4952478;28;20086;-83
2023/05/02 01:27:01;;;;;;;17.42;10.13;;;;;;;;;;4959311;28;20070;-84
2023/05/02 01:29:29;;;;;;;21.63;10.15;;;;;;;;;;4951558;28;20040;-84
2023/05/02 01:31:57;;;;;;;19.50;10.15;;;;;;;;;;4958797;28;20047;-84
2023/05/02 01:34:24;;;;;;;18.20;9.80;;;;;;;;;;4958458;28;20050;-84
2023/05/02 01:36:53;;;;;;;17.63;9.82;;;;;;;;;;4959354;28;20070;-83
2023/05/02 01:39:21;;;;;;;18.13;10.98;;;;;;;;;;4959683;28;20043;-83
2023/05/02 01:41:50;;;;;;;15.65;10.07;;;;;;;;;;4963125;28;20069;-84
2023/05/02 01:44:21;;;;;;;18.77;11.38;;;;;;;;;;4963444;28;20488;-84
2023/05/02 01:46:50;;;;;;;18.23;10.18;;;;;;;;;;4967855;28;20047;-84
2023/05/02 01:49:18;;;;;;;15.50;9.95;;;;;;;;;;4946211;28;20057;-82
2023/05/02 01:51:49;;;;;;;19.42;10.63;;;;;;;;;;4970944;28;20043;-83
2023/05/02 01:54:16;;;;;;;19.70;10.30;;;;;;;;;;4940884;28;20047;-83
2023/05/02 01:56:44;;;;;;;16.30;9.93;;;;;;;;;;4957767;28;20075;-84
2023/05/02 01:59:13;;;;;;;21.83;9.68;;;;;;;;;;4956171;28;20047;-84
2023/05/02 02:01:42;;;;;;;16.88;9.60;;;;;;;;;;4958884;28;20459;-85
2023/05/02 02:04:11;;;;;;;17.67;9.70;;;;;;;;;;4965529;28;20051;-84
2023/05/02 02:06:39;;;;;;;15.80;10.18;;;;;;;;;;4964921;28;20055;-85
2023/05/02 02:09:06;;;;;;;19.95;10.18;;;;;;;;;;4964784;28;20054;-85
2023/05/02 02:11:34;;;;;;;19.20;10.20;;;;;;;;;;4946764;28;20066;-84
2023/05/02 02:14:05;;;;;;;14.93;9.63;;;;;;;;;;4963376;28;20107;-84
2023/05/02 02:16:32;;;;;;;16.90;10.07;;;;;;;;;;4946181;28;20047;-84
2023/05/02 02:19:03;;;;;;;16.48;9.90;;;;;;;;;;4962750;28;20055;-84
2023/05/02 02:21:31;;;;;;;20.80;9.80;;;;;;;;;;4961190;28;20153;-85
2023/05/02 02:24:00;;;;;;;18.10;10.07;;;;;;;;;;4953237;28;20131;-84
2023/05/02 02:26:27;;;;;;;17.98;10.25;;;;;;;;;;4956642;28;20050;-84
2023/05/02 02:28:54;;;;;;;14.82;9.05;;;;;;;;;;4980503;28;20047;-85
2023/05/02 02:31:21;;;;;;;18.48;9.77;;;;;;;;;;4966642;28;20134;-82
2023/05/02 02:33:50;;;;;;;15.23;9.13;;;;;;;;;;4961164;28;20422;-85
2023/05/02 02:36:26;;;;;;;13.05;8.95;;;;;;;;;;4942984;28;20048;-84
2023/05/02 02:39:00;;;;;;;14.05;8.15;;;;;;;;;;4955905;28;20051;-84
2023/05/02 02:41:30;;;;;;;11.85;6.97;;;;;;;;;;4959083;28;20043;-83
2023/05/02 02:44:16;;;;;;;12.43;6.60;;;;;;;;;;4941298;29;20043;-85
2023/05/02 02:47:03;;;;;;;12.88;7.22;;;;;;;;;;4940228;28;20090;-83
2023/05/02 02:49:29;;;;;;;13.77;7.65;;;;;;;;;;4950025;28;20115;-83
2023/05/02 02:52:02;;;;;;;12.32;6.82;;;;;;;;;;4939997;29;20135;-83
2023/05/02 02:54:34;;;;;;;11.60;6.70;;;;;;;;;;4956574;29;20412;-84
2023/05/02 02:57:06;;;;;;;11.15;6.55;;;;;;;;;;4939322;28;20051;-83
2023/05/02 02:59:34;;;;;;;13.77;7.25;;;;;;;;;;4954669;28;20035;-84
2023/05/02 03:02:11;;;;;;;13.70;6.90;;;;;;;;;;4956632;28;20043;-83
2023/05/02 03:04:40;;;;;;;15.70;6.80;;;;;;;;;;4961729;28;20261;-84
2023/05/02 03:07:08;;;;;;;14.27;6.78;;;;;;;;;;4964159;28;20051;-83
2023/05/02 03:09:45;;;;;;;15.13;7.30;;;;;;;;;;4961980;28;20047;-83
2023/05/02 03:12:16;;;;;;;11.82;6.80;;;;;;;;;;4946050;28;20058;-85
2023/05/02 03:14:44;;;;;;;13.65;7.43;;;;;;;;;;4940059;28;20126;-84
2023/05/02 03:17:10;;;;;;;12.43;7.18;;;;;;;;;;4957164;28;20080;-83
2023/05/02 03:19:37;;;;;;;14.25;7.65;;;;;;;;;;4943722;28;20083;-84
2023/05/02 03:22:04;;;;;;;12.93;6.72;;;;;;;;;;4952576;28;20193;-83
2023/05/02 03:24:33;;;;;;;13.45;7.18;;;;;;;;;;4960595;28;20075;-83
2023/05/02 03:27:00;;;;;;;11.73;7.07;;;;;;;;;;4957363;28;20047;-84
2023/05/02 03:29:33;;;;;;;11.70;7.03;;;;;;;;;;4953895;28;20424;-84
2023/05/02 03:32:02;;;;;;;11.60;6.70;;;;;;;;;;4943719;28;20071;-83
2023/05/02 03:34:33;;;;;;;11.32;6.70;;;;;;;;;;4941464;29;20047;-83
2023/05/02 03:37:00;;;;;;;13.18;6.97;;;;;;;;;;4942108;28;20130;-83
2023/05/02 03:39:28;;;;;;;14.05;7.40;;;;;;;;;;4957360;28;20117;-84
2023/05/02 03:41:54;;;;;;;14.93;7.20;;;;;;;;;;4928941;28;20051;-83
2023/05/02 03:44:22;;;;;;;16.25;7.28;;;;;;;;;;4922017;28;20451;-83
2023/05/02 03:46:52;;;;;;;12.13;7.50;;;;;;;;;;4938170;28;20050;-82
2023/05/02 03:49:18;;;;;;;11.25;6.53;;;;;;;;;;4937868;28;20063;-83
2023/05/02 03:51:51;;;;;;;13.05;7.35;;;;;;;;;;4923748;28;20050;-83
2023/05/02 03:54:22;;;;;;;15.20;7.03;;;;;;;;;;4939960;28;20043;-82
2023/05/02 03:56:49;;;;;;;11.25;7.13;;;;;;;;;;4939889;28;20039;-83
2023/05/02 03:59:22;;;;;;;14.40;7.43;;;;;;;;;;4940024;28;20046;-84
2023/05/02 04:01:49;;;;;;;13.50;6.95;;;;;;;;;;4924873;28;20504;-85
2023/05/02 04:04:19;;;;;;;10.55;6.55;;;;;;;;;;4930493;28;20431;-85
2023/05/02 04:06:49;;;;;;;14.75;7.05;;;;;;;;;;4959705;28;20067;-85
2023/05/02 04:09:16;;;;;;;11.38;7.07;;;;;;;;;;4941204;28;20040;-85
2023/05/02 04:11:52;;;;;;;12.75;7.25;;;;;;;;;;4934388;28;20039;-83
2023/05/02 04:14:19;;;;;;;12.00;6.78;;;;;;;;;;4935402;28;20040;-86
2023/05/02 04:16:49;;;;;;;11.57;7.25;;;;;;;;;;4935393;28;20439;-84
2023/05/02 04:19:21;;;;;;;14.48;7.25;;;;;;;;;;4939798;28;20039;-86
2023/05/02 04:21:48;;;;;;;11.95;6.65;;;;;;;;;;4954950;28;20047;-86
2023/05/02 04:24:15;;;;;;;12.40;6.82;;;;;;;;;;4963221;28;20044;-86
2023/05/02 04:26:42;;;;;;;11.93;6.60;;;;;;;;;;4936111;28;20062;-85
2023/05/02 04:29:12;;;;;;;13.65;6.50;;;;;;;;;;4954930;28;20043;-85
2023/05/02 04:31:39;;;;;;;10.25;6.47;;;;;;;;;;4952138;28;20050;-82
2023/05/02 04:34:06;;;;;;;13.38;6.95;;;;;;;;;;4936941;29;20563;-82
2023/05/02 04:36:39;;;;;;;13.77;6.63;;;;;;;;;;4922436;29;20039;-81
2023/05/02 04:39:08;;;;;;;20.33;6.97;;;;;;;;;;4935892;29;20044;-82
2023/05/02 04:41:39;;;;;;;10.63;6.75;;;;;;;;;;4937056;29;20052;-82
2023/05/02 04:44:06;;;;;;;12.27;7.03;;;;;;;;;;4937492;29;20048;-81
2023/05/02 04:46:33;;;;;;;13.23;6.88;;;;;;;;;;4936844;29;20043;-83
2023/05/02 04:49:00;;;;;;;9.30;6.10;;;;;;;;;;4937187;29;20048;-82
2023/05/02 04:51:30;;;;;;;13.13;6.07;;;;;;;;;;4923376;29;20107;-81
2023/05/02 04:53:57;;;;;;;10.50;6.75;;;;;;;;;;4972129;28;20047;-82
2023/05/02 04:56:24;;;;;;;13.13;6.70;;;;;;;;;;4927023;28;20076;-82
2023/05/02 04:58:51;;;;;;;11.70;6.80;;;;;;;;;;4943856;28;20047;-81
2023/05/02 05:01:17;;;;;;;15.40;6.85;;;;;;;;;;4941703;28;20180;-80
2023/05/02 05:03:45;;;;;;;11.77;6.30;;;;;;;;;;4949307;28;20047;-82
2023/05/02 05:06:14;;;;;;;13.55;6.05;;;;;;;;;;4943156;28;20091;-81
2023/05/02 05:08:44;;;;;;;11.82;6.45;;;;;;;;;;4955549;28;20408;-83
2023/05/02 05:11:11;;;;;;;13.85;6.90;;;;;;;;;;4917819;29;20102;-82
2023/05/02 05:13:40;;;;;;;11.27;6.88;;;;;;;;;;4936415;29;20047;-82
2023/05/02 05:16:09;;;;;;;11.15;6.75;;;;;;;;;;4953792;28;20082;-82
2023/05/02 05:18:39;;;;;;;9.55;6.30;;;;;;;;;;4939605;29;20052;-81
2023/05/02 05:21:09;;;;;;;13.18;6.70;;;;;;;;;;4933050;29;20063;-81
2023/05/02 05:23:36;;;;;;;10.30;6.55;;;;;;;;;;4935220;28;20050;-81
2023/05/02 05:26:14;;;;;;;11.77;6.78;;;;;;;;;;4939170;28;20047;-81
2023/05/02 05:28:43;;;;;;;11.50;6.45;;;;;;;;;;4954391;28;20043;-81
2023/05/02 05:31:14;;;;;;;13.75;5.90;;;;;;;;;;4940982;28;20043;-82
2023/05/02 05:33:45;;;;;;;11.32;6.68;;;;;;;;;;4961924;28;20051;-82
2023/05/02 05:36:13;;;;;;;12.40;6.65;;;;;;;;;;4963798;28;20035;-80
2023/05/02 05:38:40;;;;;;;11.05;6.20;;;;;;;;;;4974600;28;20153;-81
2023/05/02 05:41:08;;;;;;;13.02;6.60;;;;;;;;;;4989830;28;20042;-81
2023/05/02 05:43:36;;;;;;;12.98;6.80;;;;;;;;;;4972235;28;20088;-83
2023/05/02 05:46:04;;;;;;;13.45;6.50;;;;;;;;;;4972710;28;20035;-82
2023/05/02 05:48:32;;;;;;;11.30;6.22;;;;;;;;;;4985333;28;20124;-83
2023/05/02 05:51:04;;;;;;;12.25;6.47;;;;;;;;;;4979917;28;20078;-83
2023/05/02 05:53:31;;;;;;;10.50;6.10;;;;;;;;;;4964720;28;20044;-82
2023/05/02 05:55:58;;;;;;;9.95;6.25;;;;;;;;;;4948747;28;20349;-82
2023/05/02 05:58:25;;;;;;;13.68;5.85;;;;;;;;;;4949035;28;20361;-82
2023/05/02 06:00:53;;;;;;;9.57;5.93;;;;;;;;;;4966090;28;20058;-82
2023/05/02 06:03:20;;;;;;;10.65;6.07;;;;;;;;;;4980958;28;20046;-83
2023/05/02 06:05:47;;;;;;;10.43;6.40;;;;;;;;;;4963870;28;20043;-82
2023/05/02 06:08:14;;;;;;;11.27;6.32;;;;;;;;;;4961806;28;20075;-82
2023/05/02 06:10:40;;;;;;;14.30;6.60;;;;;;;;;;4962281;28;20047;-83
2023/05/02 06:13:07;;;;;;;18.20;5.80;;;;;;;;;;4978022;28;20098;-83
2023/05/02 06:15:38;;;;;;;16.60;6.28;;;;;;;;;;4962470;28;20078;-83
2023/05/02 06:18:05;;;;;;;10.77;6.05;;;;;;;;;;4945894;28;20051;-83
2023/05/02 06:20:34;;;;;;;12.40;6.13;;;;;;;;;;4936537;28;20503;-82
2023/05/02 06:23:00;;;;;;;14.73;5.90;;;;;;;;;;4951650;28;20063;-82
2023/05/02 06:25:27;;;;;;;14.13;6.65;;;;;;;;;;4961297;28;20043;-82
2023/05/02 06:27:54;;;;;;;14.35;6.18;;;;;;;;;;4966877;28;20074;-82
2023/05/02 06:30:21;;;;;;;9.80;5.60;;;;;;;;;;4953459;28;20070;-81
2023/05/02 06:32:50;;;;;;;9.35;5.85;;;;;;;;;;4955745;28;20114;-81
2023/05/02 06:35:16;;;;;;;14.68;5.97;;;;;;;;;;4955714;28;20150;-82
2023/05/02 06:37:43;;;;;;;11.90;5.63;;;;;;;;;;4941378;28;20059;-82
2023/05/02 06:40:10;;;;;;;11.40;5.65;;;;;;;;;;4941527;28;20059;-82
2023/05/02 06:42:36;;;;;;;9.15;4.93;;;;;;;;;;4960362;28;20043;-81
2023/05/02 06:45:03;;;;;;;10.60;5.20;;;;;;;;;;4958961;28;20150;-83
2023/05/02 06:47:31;;;;;;;9.80;5.20;;;;;;;;;;4959249;28;20040;-80
2023/05/02 06:49:58;;;;;;;10.38;4.80;;;;;;;;;;4962519;28;20051;-82
2023/05/02 06:52:25;;;;;;;12.45;5.65;;;;;;;;;;4961467;28;20463;-82
2023/05/02 06:54:52;;;;;;;13.23;5.65;;;;;;;;;;4961049;28;20036;-83
2023/05/02 06:57:18;;;;;;;11.27;5.57;;;;;;;;;;4963195;28;20094;-82
2023/05/02 06:59:45;;;;;;;11.35;4.85;;;;;;;;;;4980686;28;20516;-84
2023/05/02 07:02:11;;;;;;;7.70;5.22;;;;;;;;;;4964330;28;20050;-83
2023/05/02 07:04:38;;;;;;;13.73;5.60;;;;;;;;;;4962454;28;20083;-84
2023/05/02 07:07:05;;;;;;;13.20;5.93;;;;;;;;;;4945704;28;20079;-83
2023/05/02 07:09:31;;;;;;;10.30;5.90;;;;;;;;;;4977223;28;20051;-84
2023/05/02 07:11:58;;;;;;;11.10;6.10;;;;;;;;;;4955502;28;20520;-82
2023/05/02 07:14:25;;;;;;;12.80;6.82;;;;;;;;;;4953736;28;20047;-82
2023/05/02 07:16:52;;;;;;;12.05;6.85;;;;;;;;;;4953162;28;20562;-83
2023/05/02 07:19:18;;;;;;;10.10;6.13;;;;;;;;;;4953353;28;20279;-83
2023/05/02 07:21:45;;;;;;;17.00;7.28;;;;;;;;;;4968425;28;20111;-84
2023/05/02 07:24:11;;;;;;;11.15;6.50;;;;;;;;;;4953557;28;20054;-83
2023/05/02 07:26:38;;;;;;;11.90;6.72;;;;;;;;;;4951985;28;20056;-83
2023/05/02 07:29:05;;;;;;;12.50;7.13;;;;;;;;;;4943176;28;20082;-83
2023/05/02 07:31:32;;;;;;;16.77;7.55;;;;;;;;;;4958639;28;20616;-83
2023/05/02 07:33:58;;;;;;;11.75;7.40;;;;;;;;;;4958818;28;20059;-82
2023/05/02 07:36:25;;;;;;;10.25;6.35;;;;;;;;;;4960119;28;20071;-84
2023/05/02 07:38:52;;;;;;;13.48;7.45;;;;;;;;;;4960269;28;20047;-83
2023/05/02 07:41:18;;;;;;;12.85;6.60;;;;;;;;;;4960295;28;20066;-83
2023/05/02 07:43:45;;;;;;;12.77;7.30;;;;;;;;;;4959983;28;20070;-84
2023/05/02 07:46:12;;;;;;;13.15;7.55;;;;;;;;;;4958542;28;20110;-83
2023/05/02 07:48:38;;;;;;;14.85;7.32;;;;;;;;;;4957833;28;20043;-83
2023/05/02 07:51:06;;;;;;;15.25;7.47;;;;;;;;;;4957264;28;20057;-82
2023/05/02 07:53:33;;;;;;;17.40;7.65;;;;;;;;;;4958716;28;20047;-85
2023/05/02 07:55:59;;;;;;;20.73;8.73;;;;;;;;;;4961768;28;20126;-84
2023/05/02 07:58:26;;;;;;;14.68;8.43;;;;;;;;;;4950566;28;20051;-81
2023/05/02 08:00:53;;;;;;;13.80;8.35;;;;;;;;;;4954590;28;20103;-85
2023/05/02 08:03:19;;;;;;;16.52;7.90;;;;;;;;;;4953700;28;20047;-83
2023/05/02 08:05:46;;;;;;;11.13;7.40;;;;;;;;;;4955651;28;20111;-83
2023/05/02 08:08:13;;;;;;;13.52;7.57;;;;;;;;;;4958084;28;20047;-83
2023/05/02 08:10:40;;;;;;;14.48;8.00;;;;;;;;;;4974711;28;20067;-83
2023/05/02 08:13:06;;;;;;;14.60;7.40;;;;;;;;;;4939636;28;20126;-83
2023/05/02 08:15:34;;;;;;;15.80;8.23;;;;;;;;;;4975281;28;20070;-84
2023/05/02 08:18:01;;;;;;;17.80;8.70;;;;;;;;;;4975551;28;20050;-84
2023/05/02 08:20:28;;;;;;;18.73;8.85;;;;;;;;;;4969140;28;20047;-83
2023/05/02 08:22:54;;;;;;;14.85;8.40;;;;;;;;;;4965556;28;20055;-82
2023/05/02 08:25:23;;;;;;;16.88;9.23;;;;;;;;;;4956878;28;20048;-82
2023/05/02 08:27:50;;;;;;;15.75;9.13;;;;;;;;;;4962640;28;20049;-84
2023/05/02 08:30:17;;;;;;;19.35;9.05;;;;;;;;;;4957219;28;20051;-83
2023/05/02 08:32:44;;;;;;;13.80;7.63;;;;;;;;;;4927185;28;20103;-84
2023/05/02 08:35:11;;;;;;;15.05;7.78;;;;;;;;;;4942513;28;20519;-85
2023/05/02 08:37:38;;;;;;;12.60;7.15;;;;;;;;;;4960231;28;20370;-85
2023/05/02 08:40:06;;;;;;;19.10;7.57;;;;;;;;;;4943687;28;20068;-83
2023/05/02 08:42:34;;;;;;;12.57;7.10;;;;;;;;;;4938002;28;20040;-82
2023/05/02 08:45:01;;;;;;;10.40;6.72;;;;;;;;;;4934814;28;20043;-82
2023/05/02 08:47:28;;;;;;;11.70;6.15;;;;;;;;;;4934254;28;20542;-82
2023/05/02 08:49:55;;;;;;;11.73;6.28;;;;;;;;;;4936667;28;20550;-82
2023/05/02 08:52:23;;;;;;;14.05;6.68;;;;;;;;;;4940402;28;20118;-83
2023/05/02 08:54:50;;;;;;;12.40;6.10;;;;;;;;;;4930211;28;20048;-83
2023/05/02 08:57:17;;;;;;;13.13;6.20;;;;;;;;;;4946751;28;20481;-82
2023/05/02 08:59:44;;;;;;;11.10;6.38;;;;;;;;;;4928363;28;20054;-83
2023/05/02 09:02:22;;;;;;;13.23;5.95;;;;;;;;;;4943903;28;20062;-84
2023/05/02 09:04:52;;;;;;;14.93;6.13;;;;;;;;;;4942897;28;20048;-84
2023/05/02 09:07:19;;;;;;;11.63;6.05;;;;;;;;;;4943514;28;20070;-84
2023/05/02 09:09:45;;;;;;;12.73;6.68;;;;;;;;;;4932231;28;20047;-82
2023/05/02 09:12:13;;;;;;;12.40;6.13;;;;;;;;;;4934833;28;20040;-83
2023/05/02 09:14:40;;;;;;;11.98;6.25;;;;;;;;;;4938258;28;20051;-83
2023/05/02 09:17:07;;;;;;;15.23;6.80;;;;;;;;;;4937014;29;20060;-82
2023/05/02 09:19:34;;;;;;;11.65;6.70;;;;;;;;;;4923609;29;20107;-83
2023/05/02 09:22:01;;;;;;;15.15;7.20;;;;;;;;;;4939586;28;20051;-84
2023/05/02 09:24:31;;;;;;;16.23;7.35;;;;;;;;;;4944165;28;20052;-82
2023/05/02 09:26:58;;;;;;;14.98;8.27;;;;;;;;;;4962210;28;20287;-83
2023/05/02 09:29:26;;;;;;;11.73;7.72;;;;;;;;;;4959200;28;20054;-82
2023/05/02 09:31:52;;;;;;;16.23;7.68;;;;;;;;;;4953823;28;20055;-82
2023/05/02 09:34:22;;;;;;;16.10;7.82;;;;;;;;;;4953569;28;20058;-82
2023/05/02 09:36:52;;;;;;;15.18;7.65;;;;;;;;;;4953899;28;20051;-81
2023/05/02 09:39:23;;;;;;;22.55;9.13;;;;;;;;;;4954325;28;20133;-82
2023/05/02 09:41:51;;;;;;;17.45;8.80;;;;;;;;;;4965365;28;20529;-83
2023/05/02 09:44:19;;;;;;;18.85;8.57;;;;;;;;;;4953349;28;20055;-84
2023/05/02 09:46:46;;;;;;;17.25;8.68;;;;;;;;;;4967934;28;20043;-84
2023/05/02 09:49:13;;;;;;;16.05;9.40;;;;;;;;;;4965516;28;20051;-83
2023/05/02 09:51:42;;;;;;;17.48;9.07;;;;;;;;;;4965315;28;20432;-83
2023/05/02 09:54:10;;;;;;;15.40;8.77;;;;;;;;;;4966132;28;20047;-85
2023/05/02 09:56:51;;;;;;;18.58;9.35;;;;;;;;;;4963890;28;20523;-85
2023/05/02 09:59:18;;;;;;;14.35;9.18;;;;;;;;;;4965215;28;20062;-84
2023/05/02 10:01:45;;;;;;;13.57;8.25;;;;;;;;;;4963716;28;20043;-84
2023/05/02 10:04:17;;;;;;;16.88;8.48;;;;;;;;;;4959385;28;20050;-82
2023/05/02 10:06:45;;;;;;;16.30;10.75;;;;;;;;;;4952423;28;20059;-82
2023/05/02 10:09:13;;;;;;;17.17;11.02;;;;;;;;;;4956981;28;20074;-83
2023/05/02 10:11:48;;;;;;;15.32;10.57;;;;;;;;;;4957664;28;20415;-82
2023/05/02 10:14:15;;;;;;;14.15;9.82;;;;;;;;;;4951217;28;20223;-81
2023/05/02 10:17:04;;;;;;;19.10;11.63;;;;;;;;;;4955386;28;20078;-83
2023/05/02 10:19:44;;;;;;;20.55;11.00;;;;;;;;;;4954908;28;20077;-84
2023/05/02 10:22:11;;;;;;;18.77;11.43;;;;;;;;;;4941054;28;20039;-83
2023/05/02 10:24:39;;;;;;;16.10;11.02;;;;;;;;;;4949801;28;20495;-82
2023/05/02 10:27:06;;;;;;;20.80;12.18;;;;;;;;;;4957674;28;20119;-83
2023/05/02 10:29:32;;;;;;;17.52;11.48;;;;;;;;;;4954254;28;20051;-83
2023/05/02 10:31:59;;;;;;;17.15;11.77;;;;;;;;;;4940023;29;20346;-83
2023/05/02 10:34:26;;;;;;;17.45;12.25;;;;;;;;;;4940380;29;20047;-85
2023/05/02 10:37:00;;;;;;;17.75;12.00;;;;;;;;;;4941197;28;20111;-84
2023/05/02 10:39:27;;;;;;;17.83;11.75;;;;;;;;;;4943095;29;20059;-82
2023/05/02 10:41:55;;;;;;;15.80;11.45;;;;;;;;;;4944018;29;20056;-85
2023/05/02 10:44:40;;;;;;;18.58;10.90;;;;;;;;;;4929076;29;20139;-86
2023/05/02 10:47:25;;;;;;;14.32;9.80;;;;;;;;;;4945256;29;20102;-84
2023/05/02 10:49:54;;;;;;;16.23;10.27;;;;;;;;;;4944809;29;20078;-83
2023/05/02 10:52:40;;;;;;;15.05;10.50;;;;;;;;;;4947677;29;20046;-84
2023/05/02 10:55:22;;;;;;;16.10;11.02;;;;;;;;;;4944572;29;20060;-83
2023/05/02 10:58:07;;;;;;;14.68;11.02;;;;;;;;;;4941632;28;20036;-82
2023/05/02 11:00:34;;;;;;;21.02;10.32;;;;;;;;;;4945340;28;20055;-84
2023/05/02 11:03:01;;;;;;;14.40;10.13;;;;;;;;;;4950688;28;20098;-80
2023/05/02 11:05:28;;;;;;;19.58;11.27;;;;;;;;;;4949538;29;20051;-83
2023/05/02 11:08:13;;;;;;;21.13;10.88;;;;;;;;;;4935364;29;20078;-84
2023/05/02 11:10:40;;;;;;;15.25;10.32;;;;;;;;;;4931172;29;20051;-84
2023/05/02 11:13:07;;;;;;;17.25;11.05;;;;;;;;;;4946027;29;20059;-84
2023/05/02 11:15:40;;;;;;;16.30;10.85;;;;;;;;;;4945425;29;20247;-84
2023/05/02 11:18:14;;;;;;;16.02;10.00;;;;;;;;;;4929405;29;20541;-81
2023/05/02 11:20:40;;;;;;;16.30;9.65;;;;;;;;;;4945168;29;20046;-84
2023/05/02 11:23:17;;;;;;;15.00;10.43;;;;;;;;;;4944991;28;20154;-81
2023/05/02 11:25:47;;;;;;;16.75;10.13;;;;;;;;;;4969509;28;20039;-85
2023/05/02 11:28:33;;;;;;;17.80;10.57;;;;;;;;;;4976783;28;20050;-84
2023/05/02 11:30:59;;;;;;;14.80;10.00;;;;;;;;;;4960384;28;20111;-82
2023/05/02 11:33:29;;;;;;;14.70;9.68;;;;;;;;;;4977281;28;20043;-84
2023/05/02 11:35:57;;;;;;;14.85;9.40;;;;;;;;;;4962085;28;20062;-84
2023/05/02 11:38:24;;;;;;;18.85;9.32;;;;;;;;;;4962313;28;20050;-83
2023/05/02 11:40:54;;;;;;;12.75;8.82;;;;;;;;;;4946940;29;20058;-82
2023/05/02 11:43:21;;;;;;;15.00;8.55;;;;;;;;;;4962926;28;20047;-81
2023/05/02 11:45:48;;;;;;;13.85;8.90;;;;;;;;;;4954037;28;20050;-82
2023/05/02 11:48:16;;;;;;;13.43;8.75;;;;;;;;;;4961386;28;20122;-84
2023/05/02 11:50:43;;;;;;;13.90;9.05;;;;;;;;;;4983173;28;20130;-83
2023/05/02 11:53:17;;;;;;;17.35;8.57;;;;;;;;;;4966915;28;20065;-83
2023/05/02 11:55:47;;;;;;;11.82;8.23;;;;;;;;;;4964421;28;20071;-83
2023/05/02 11:58:17;;;;;;;17.65;8.77;;;;;;;;;;4953320;28;20267;-82
2023/05/02 12:00:45;;;;;;;13.32;8.82;;;;;;;;;;4955485;28;20098;-82
2023/05/02 12:03:22;;;;;;;18.17;9.55;;;;;;;;;;4942443;28;20069;-81
2023/05/02 12:05:50;;;;;;;18.98;9.57;;;;;;;;;;4976812;28;20123;-83
2023/05/02 12:08:21;;;;;;;13.77;9.75;;;;;;;;;;4944862;28;20054;-83
2023/05/02 12:10:48;;;;;;;17.30;9.35;;;;;;;;;;4961000;28;20448;-83
2023/05/02 12:13:15;;;;;;;12.85;9.32;;;;;;;;;;4962805;28;20047;-82
2023/05/02 12:15:41;;;;;;;12.98;8.23;;;;;;;;;;4962356;28;20048;-84
2023/05/02 12:18:36;;;;;;;11.82;8.20;;;;;;;;;;4974413;28;20045;-81
2023/05/02 12:21:04;;;;;;;12.70;8.05;;;;;;;;;;4946570;28;20141;-83
2023/05/02 12:23:31;;;;;;;11.55;7.55;;;;;;;;;;4973526;28;20055;-82
2023/05/02 12:25:59;;;;;;;13.18;8.98;;;;;;;;;;4947318;29;20074;-83
2023/05/02 12:28:26;;;;;;;11.38;8.20;;;;;;;;;;4962996;28;20075;-82
2023/05/02 12:30:52;;;;;;;12.65;7.60;;;;;;;;;;4937416;28;20054;-80
2023/05/02 12:33:19;;;;;;;13.80;8.18;;;;;;;;;;4938001;29;20714;-81
2023/05/02 12:35:46;;;;;;;13.48;7.88;;;;;;;;;;4943200;29;20436;-82
2023/05/02 12:38:21;;;;;;;12.80;7.90;;;;;;;;;;4943559;28;20083;-80
2023/05/02 12:40:49;;;;;;;13.27;7.72;;;;;;;;;;4951059;28;20073;-80
2023/05/02 12:43:16;;;;;;;12.93;7.85;;;;;;;;;;4941530;28;20056;-79
2023/05/02 12:45:43;;;;;;;15.30;8.07;;;;;;;;;;4958271;28;20067;-82
2023/05/02 12:48:19;;;;;;;11.20;7.57;;;;;;;;;;4944674;28;20048;-83
2023/05/02 12:50:46;;;;;;;10.57;7.90;;;;;;;;;;4947940;28;20048;-83
2023/05/02 12:53:12;;;;;;;15.40;7.55;;;;;;;;;;4940089;28;20075;-81
2023/05/02 12:55:40;;;;;;;10.93;7.43;;;;;;;;;;4935550;28;20044;-82
2023/05/02 12:58:08;;;;;;;10.05;6.53;;;;;;;;;;4936476;28;20215;-81
2023/05/02 13:00:36;;;;;;;11.50;6.97;;;;;;;;;;4937434;28;20044;-81
2023/05/02 13:03:03;;;;;;;9.38;6.45;;;;;;;;;;4940022;28;20039;-83
2023/05/02 13:05:30;;;;;;;9.85;7.00;;;;;;;;;;4924552;29;20054;-82
2023/05/02 13:07:58;;;;;;;10.88;7.70;;;;;;;;;;4937188;28;20071;-80
2023/05/02 13:10:25;;;;;;;8.95;6.78;;;;;;;;;;4951503;28;20055;-80
2023/05/02 13:12:52;;;;;;;10.27;7.07;;;;;;;;;;4938199;28;20047;-81
2023/05/02 13:15:18;;;;;;;11.55;7.45;;;;;;;;;;4935038;28;20044;-81
2023/05/02 13:17:46;;;;;;;10.40;8.02;;;;;;;;;;4937607;28;20051;-80
2023/05/02 13:20:13;;;;;;;12.05;8.07;;;;;;;;;;4937021;28;20050;-80
2023/05/02 13:22:40;;;;;;;11.90;8.38;;;;;;;;;;4937842;28;20138;-81
2023/05/02 13:25:07;;;;;;;13.95;7.75;;;;;;;;;;4948207;28;20419;-81
2023/05/02 13:27:34;;;;;;;9.27;6.90;;;;;;;;;;4938047;28;20052;-80
2023/05/02 13:30:00;;;;;;;10.48;7.68;;;;;;;;;;4961466;28;20048;-82
2023/05/02 13:32:33;;;;;;;9.48;7.43;;;;;;;;;;4944493;28;20120;-81
2023/05/02 13:35:00;;;;;;;10.15;7.82;;;;;;;;;;4946064;28;20047;-83
2023/05/02 13:37:30;;;;;;;10.60;7.60;;;;;;;;;;4953454;28;20101;-82
2023/05/02 13:39:57;;;;;;;12.25;8.70;;;;;;;;;;4946298;28;20055;-81
2023/05/02 13:42:24;;;;;;;15.45;9.02;;;;;;;;;;4950315;28;20246;-83
2023/05/02 13:44:51;;;;;;;13.40;8.98;;;;;;;;;;4974984;28;20059;-80
2023/05/02 13:47:17;;;;;;;12.77;9.15;;;;;;;;;;4961804;28;20111;-80
2023/05/02 13:49:45;;;;;;;14.45;9.93;;;;;;;;;;4960362;28;20050;-82
2023/05/02 13:52:12;;;;;;;14.88;10.40;;;;;;;;;;4949004;28;20051;-79
2023/05/02 13:54:38;;;;;;;16.95;10.93;;;;;;;;;;4949306;28;20046;-78
2023/05/02 13:57:05;;;;;;;15.65;9.10;;;;;;;;;;4954464;28;20051;-79
2023/05/02 13:59:32;;;;;;;15.30;9.25;;;;;;;;;;4937565;28;20134;-79
2023/05/02 14:01:58;;;;;;;13.45;7.45;;;;;;;;;;4953413;28;20138;-78
2023/05/02 14:04:25;;;;;;;9.80;6.45;;;;;;;;;;4937452;28;20043;-78
2023/05/02 14:06:52;;;;;;;12.00;6.95;;;;;;;;;;4933048;28;20047;-78
2023/05/02 14:09:19;;;;;;;12.40;6.00;;;;;;;;;;4941516;28;20090;-84
2023/05/02 14:11:47;;;;;;;10.40;5.95;;;;;;;;;;4955849;28;20047;-84
2023/05/02 14:14:14;;;;;;;8.68;5.47;;;;;;;;;;4957829;28;20048;-80
2023/05/02 14:16:41;;;;;;;12.43;5.35;;;;;;;;;;4965715;28;20039;-83
2023/05/02 14:19:07;;;;;;;8.75;5.50;;;;;;;;;;4954905;28;20047;-86
2023/05/02 14:21:38;;;;;;;10.18;5.65;;;;;;;;;;4951467;28;20114;-82
2023/05/02 14:24:05;;;;;;;11.02;6.10;;;;;;;;;;4949164;28;20071;-83
2023/05/02 14:26:32;;;;;;;9.95;6.18;;;;;;;;;;4951649;28;20143;-80
2023/05/02 14:28:59;;;;;;;11.10;6.30;;;;;;;;;;4954617;28;20035;-81
2023/05/02 14:31:26;;;;;;;9.52;5.68;;;;;;;;;;4960007;28;20063;-84
2023/05/02 14:33:53;;;;;;;9.88;5.45;;;;;;;;;;4964029;28;20052;-82
2023/05/02 14:36:20;;;;;;;9.55;5.68;;;;;;;;;;4949774;28;20511;-82
2023/05/02 14:38:46;;;;;;;7.32;4.15;;;;;;;;;;4946016;28;20067;-86